Time;durP1;ratioP1;P1;durP2;ratioP2;P2;SDS_P1;SDS_P2;PMS_P1;PMS_P2;Temp;Humidity;BMP_temperature;BMP_pressure;BME280_temperature;BME280_humidity;BME280_pressure;Samples;Min_cycle;Max_cycle;Signal;HPM_P1;HPM_P2
2023/04/11 00:00:47;;;;;;;25.23;3.28;;;9.00;99.90;;;;;;5073081;28;20112;-38
2023/04/11 00:03:12;;;;;;;39.58;4.80;;;9.00;99.90;;;;;;5070547;28;20016;-39
2023/04/11 00:05:38;;;;;;;28.90;3.30;;;9.10;99.90;;;;;;5072242;28;20020;-40
2023/04/11 00:08:04;;;;;;;47.30;4.65;;;9.10;99.90;;;;;;5071084;28;20036;-34
2023/04/11 00:10:29;;;;;;;24.38;4.97;;;9.10;99.90;;;;;;5071619;28;20396;-35
2023/04/11 00:12:56;;;;;;;18.67;3.53;;;9.10;99.90;;;;;;5070610;28;20222;-39
2023/04/11 00:15:23;;;;;;;26.83;3.42;;;9.10;99.90;;;;;;5072156;28;20082;-42
2023/04/11 00:17:49;;;;;;;31.58;5.32;;;9.10;99.90;;;;;;5070562;28;20468;-41
2023/04/11 00:20:15;;;;;;;41.88;4.10;;;9.20;99.90;;;;;;5072510;28;20021;-42
2023/04/11 00:22:42;;;;;;;28.35;2.95;;;9.20;99.90;;;;;;5067433;28;20046;-43
2023/04/11 00:25:08;;;;;;;39.27;4.93;;;9.20;99.90;;;;;;5070990;28;20494;-43
2023/04/11 00:27:34;;;;;;;25.92;4.78;;;9.20;99.90;;;;;;5070285;28;20058;-43
2023/04/11 00:29:59;;;;;;;28.52;4.70;;;9.20;99.90;;;;;;5071331;28;20025;-39
2023/04/11 00:32:25;;;;;;;28.13;4.30;;;9.30;99.90;;;;;;5062497;28;20078;-55
2023/04/11 00:34:51;;;;;;;26.92;4.45;;;9.20;99.90;;;;;;5071390;28;20495;-39
2023/04/11 00:37:20;;;;;;;35.10;3.92;;;9.30;99.90;;;;;;5069476;28;20033;-41
2023/04/11 00:39:49;;;;;;;37.08;5.25;;;9.20;99.90;;;;;;5075399;28;20035;-41
2023/04/11 00:42:15;;;;;;;33.08;3.88;;;9.30;99.90;;;;;;5074549;28;20502;-38
2023/04/11 00:44:41;;;;;;;25.00;3.78;;;9.30;99.90;;;;;;5072144;28;20476;-41
2023/04/11 00:47:07;;;;;;;21.20;3.28;;;9.30;99.90;;;;;;5073920;28;20032;-42
2023/04/11 00:49:34;;;;;;;30.58;2.63;;;9.20;99.90;;;;;;5069033;28;20032;-38
2023/04/11 00:52:00;;;;;;;20.92;3.53;;;9.20;99.90;;;;;;5064078;28;20063;-36
2023/04/11 00:54:28;;;;;;;32.42;3.42;;;9.30;99.90;;;;;;5068858;28;20017;-39
2023/04/11 00:57:04;;;;;;;30.77;3.38;;;9.30;99.90;;;;;;5069432;28;20055;-39
2023/04/11 00:59:31;;;;;;;19.80;3.15;;;9.30;99.90;;;;;;5069955;28;20020;-35
2023/04/11 01:01:58;;;;;;;20.17;2.65;;;9.30;99.90;;;;;;5074399;28;20032;-41
2023/04/11 01:04:28;;;;;;;23.88;3.47;;;9.30;99.90;;;;;;5073975;28;20024;-39
2023/04/11 01:07:02;;;;;;;19.90;2.80;;;9.40;99.90;;;;;;5065313;28;20036;-40
2023/04/11 01:09:28;;;;;;;8.95;1.80;;;9.40;99.90;;;;;;5073995;28;20020;-36
2023/04/11 01:11:56;;;;;;;19.35;2.90;;;9.40;99.90;;;;;;5076088;28;20017;-38
2023/04/11 01:14:24;;;;;;;13.10;1.70;;;9.40;99.90;;;;;;5076042;28;20017;-39
2023/04/11 01:16:50;;;;;;;13.65;4.22;;;9.40;99.90;;;;;;5076127;28;20496;-40
2023/04/11 01:19:20;;;;;;;13.10;3.47;;;9.30;99.90;;;;;;5075946;28;20016;-42
2023/04/11 01:21:48;;;;;;;13.18;1.67;;;9.40;99.90;;;;;;5069760;28;20513;-42
2023/04/11 01:24:14;;;;;;;20.45;2.58;;;9.40;99.90;;;;;;5074882;28;20019;-36
2023/04/11 01:26:40;;;;;;;19.67;2.45;;;9.40;99.90;;;;;;5075681;28;20028;-39
2023/04/11 01:29:06;;;;;;;17.58;1.77;;;9.40;99.90;;;;;;5072114;28;20035;-56
2023/04/11 01:31:31;;;;;;;13.45;2.13;;;9.40;99.90;;;;;;5073054;28;20107;-39
2023/04/11 01:33:58;;;;;;;18.25;2.03;;;9.40;99.90;;;;;;5076024;28;20082;-39
2023/04/11 01:36:25;;;;;;;16.63;2.15;;;9.40;99.90;;;;;;5063998;28;20025;-36
2023/04/11 01:38:51;;;;;;;12.83;1.40;;;9.40;99.90;;;;;;5070449;28;20473;-46
2023/04/11 01:41:18;;;;;;;18.10;1.55;;;9.40;99.90;;;;;;5075652;28;20095;-37
2023/04/11 01:43:45;;;;;;;18.95;2.10;;;9.50;99.90;;;;;;5067134;28;20017;-38
2023/04/11 01:46:15;;;;;;;21.75;2.08;;;9.50;99.90;;;;;;5055272;28;20545;-37
2023/04/11 01:48:41;;;;;;;16.15;2.45;;;9.50;99.90;;;;;;5073782;28;20035;-39
2023/04/11 01:51:07;;;;;;;19.73;2.58;;;9.50;99.90;;;;;;5075492;28;20493;-39
2023/04/11 01:53:33;;;;;;;10.93;2.42;;;9.50;99.90;;;;;;5075435;28;20024;-38
2023/04/11 01:55:58;;;;;;;18.52;1.73;;;9.60;99.90;;;;;;5067433;28;20036;-35
2023/04/11 01:58:24;;;;;;;19.15;2.67;;;9.60;99.90;;;;;;5073696;28;20062;-36
2023/04/11 02:00:50;;;;;;;13.35;1.95;;;9.50;99.90;;;;;;5075227;28;20082;-35
2023/04/11 02:03:17;;;;;;;14.95;1.55;;;9.50;99.90;;;;;;5070732;28;20078;-39
2023/04/11 02:05:43;;;;;;;10.32;1.10;;;9.50;99.90;;;;;;5073656;28;20021;-41
2023/04/11 02:08:09;;;;;;;9.02;1.75;;;9.50;99.90;;;;;;5058771;28;20500;-36
2023/04/11 02:10:35;;;;;;;9.57;1.67;;;9.50;99.90;;;;;;5055130;28;20029;-36
2023/04/11 02:13:01;;;;;;;3.88;1.08;;;9.50;99.90;;;;;;5058005;28;20579;-37
2023/04/11 02:15:26;;;;;;;8.20;1.10;;;9.50;99.90;;;;;;5054746;28;20032;-35
2023/04/11 02:17:52;;;;;;;4.68;0.93;;;9.40;99.90;;;;;;5054917;28;20497;-36
2023/04/11 02:20:20;;;;;;;6.80;0.95;;;9.40;99.90;;;;;;5055422;28;20501;-37
2023/04/11 02:22:46;;;;;;;4.88;0.98;;;9.40;99.90;;;;;;5071424;28;20020;-43
2023/04/11 02:25:12;;;;;;;7.32;0.80;;;9.40;99.90;;;;;;5061314;28;20500;-35
2023/04/11 02:27:37;;;;;;;8.75;0.95;;;9.40;99.90;;;;;;5053046;28;20029;-40
2023/04/11 02:30:04;;;;;;;6.00;1.02;;;9.50;99.90;;;;;;5074048;28;20033;-36
2023/04/11 02:32:36;;;;;;;4.65;0.88;;;9.40;99.90;;;;;;5071818;28;20043;-38
2023/04/11 02:35:04;;;;;;;3.53;0.90;;;9.40;99.90;;;;;;5063791;28;20024;-38
2023/04/11 02:37:30;;;;;;;5.05;0.90;;;9.30;99.90;;;;;;5070500;28;20360;-38
2023/04/11 02:39:56;;;;;;;9.27;1.27;;;9.30;99.90;;;;;;5055882;28;20096;-44
2023/04/11 02:42:22;;;;;;;6.95;0.88;;;9.30;99.90;;;;;;5068216;28;20028;-38
2023/04/11 02:44:48;;;;;;;9.80;0.80;;;9.20;99.90;;;;;;5059951;28;20029;-37
2023/04/11 02:47:13;;;;;;;10.20;1.63;;;9.20;99.90;;;;;;5054476;28;20061;-36
2023/04/11 02:49:42;;;;;;;10.80;1.20;;;9.20;99.90;;;;;;5053094;28;20131;-38
2023/04/11 02:52:08;;;;;;;3.13;1.02;;;9.20;99.90;;;;;;5066206;28;20108;-41
2023/04/11 02:54:34;;;;;;;13.63;1.48;;;9.20;99.90;;;;;;5058427;28;20449;-41
2023/04/11 02:57:01;;;;;;;14.85;1.33;;;9.30;99.90;;;;;;5073231;28;20116;-38
2023/04/11 02:59:26;;;;;;;7.15;0.90;;;9.20;99.90;;;;;;5069942;28;20100;-40
2023/04/11 03:01:59;;;;;;;8.00;1.50;;;9.10;99.90;;;;;;5073396;28;20489;-56
2023/04/11 03:04:25;;;;;;;10.77;1.83;;;9.20;99.90;;;;;;5059102;28;20486;-55
2023/04/11 03:06:50;;;;;;;16.27;1.75;;;9.20;99.90;;;;;;5073343;28;20024;-40
2023/04/11 03:09:16;;;;;;;13.00;2.17;;;9.20;99.90;;;;;;5072793;28;20542;-37
2023/04/11 03:11:42;;;;;;;4.65;1.40;;;9.30;99.90;;;;;;5072465;28;20028;-40
2023/04/11 03:14:07;;;;;;;13.23;1.40;;;9.40;99.90;;;;;;5071931;28;20508;-37
2023/04/11 03:16:33;;;;;;;6.75;2.15;;;9.40;99.90;;;;;;5073817;28;20542;-39
2023/04/11 03:18:59;;;;;;;7.95;1.45;;;9.40;99.90;;;;;;5059263;28;20120;-38
2023/04/11 03:21:26;;;;;;;8.65;1.00;;;9.40;99.90;;;;;;5070761;28;20497;-38
2023/04/11 03:23:52;;;;;;;14.43;1.95;;;9.30;99.90;;;;;;5071370;28;20377;-39
2023/04/11 03:26:18;;;;;;;9.20;1.17;;;9.20;99.90;;;;;;5068989;28;20025;-36
2023/04/11 03:28:44;;;;;;;4.50;1.25;;;9.10;99.90;;;;;;5064009;28;20085;-37
2023/04/11 03:31:10;;;;;;;13.73;2.55;;;9.00;99.90;;;;;;5072268;28;20039;-36
2023/04/11 03:33:37;;;;;;;8.77;1.25;;;9.00;99.90;;;;;;5072144;28;20081;-37
2023/04/11 03:36:03;;;;;;;7.45;0.70;;;8.90;99.90;;;;;;5072410;28;20396;-40
2023/04/11 03:38:29;;;;;;;5.53;1.65;;;8.80;99.90;;;;;;5072087;28;20025;-47
2023/04/11 03:40:54;;;;;;;3.17;0.80;;;8.80;99.90;;;;;;5073361;28;20476;-43
2023/04/11 03:43:20;;;;;;;9.50;0.98;;;8.80;99.90;;;;;;5071968;28;20020;-42
2023/04/11 03:45:45;;;;;;;11.15;1.17;;;8.70;99.90;;;;;;5071806;28;20025;-40
2023/04/11 03:48:11;;;;;;;8.35;1.05;;;8.80;99.90;;;;;;5073191;28;20488;-39
2023/04/11 03:50:37;;;;;;;4.43;1.33;;;8.70;99.90;;;;;;5068106;28;20032;-38
2023/04/11 03:53:03;;;;;;;8.73;1.55;;;8.70;99.90;;;;;;5052885;28;20036;-40
2023/04/11 03:55:29;;;;;;;12.95;1.55;;;8.70;99.90;;;;;;5067313;28;20032;-43
2023/04/11 03:57:55;;;;;;;8.85;0.88;;;8.70;99.90;;;;;;5039967;28;20098;-39
2023/04/11 04:00:21;;;;;;;3.92;0.82;;;8.70;99.90;;;;;;5071189;28;20025;-41
2023/04/11 04:02:47;;;;;;;5.00;1.33;;;8.70;99.90;;;;;;5066902;28;20024;-36
2023/04/11 04:05:12;;;;;;;6.72;1.30;;;8.70;99.90;;;;;;5069162;28;20032;-39
2023/04/11 04:07:38;;;;;;;6.97;1.38;;;8.70;99.90;;;;;;5069899;28;20025;-41
2023/04/11 04:10:04;;;;;;;2.80;1.02;;;8.70;99.90;;;;;;5070227;28;20107;-38
2023/04/11 04:12:30;;;;;;;7.03;0.88;;;8.70;99.90;;;;;;5064836;28;20040;-39
2023/04/11 04:14:55;;;;;;;5.05;1.15;;;8.70;99.90;;;;;;5072960;28;20032;-43
2023/04/11 04:17:23;;;;;;;15.15;1.50;;;8.70;99.90;;;;;;5069770;28;20495;-40
2023/04/11 04:19:49;;;;;;;14.13;1.20;;;8.60;99.90;;;;;;5072717;28;20031;-41
2023/04/11 04:22:16;;;;;;;11.50;1.30;;;8.60;99.90;;;;;;5073109;28;20485;-39
2023/04/11 04:24:45;;;;;;;9.40;1.55;;;8.60;99.90;;;;;;5070079;28;20108;-39
2023/04/11 04:27:16;;;;;;;4.72;1.02;;;8.60;99.90;;;;;;5071544;28;20028;-38
2023/04/11 04:29:46;;;;;;;6.68;1.60;;;8.50;99.90;;;;;;5071239;28;20017;-39
2023/04/11 04:32:13;;;;;;;5.93;1.00;;;8.60;99.90;;;;;;5068020;28;20021;-34
2023/04/11 04:34:45;;;;;;;5.50;0.90;;;8.50;99.90;;;;;;5070118;28;20078;-31
2023/04/11 04:37:21;;;;;;;4.75;0.80;;;8.50;99.90;;;;;;5070404;28;20291;-67
2023/04/11 04:39:55;;;;;;;8.10;1.05;;;8.40;99.90;;;;;;5071882;28;20020;-32
2023/04/11 04:42:22;;;;;;;9.98;0.98;;;8.40;99.90;;;;;;5071485;28;20040;-44
2023/04/11 04:44:48;;;;;;;6.70;1.00;;;8.30;99.90;;;;;;5072550;28;20032;-31
2023/04/11 04:47:15;;;;;;;8.75;1.10;;;8.30;99.90;;;;;;5071324;28;20534;-56
2023/04/11 04:49:42;;;;;;;8.10;1.10;;;8.30;99.90;;;;;;5070356;28;20532;-40
2023/04/11 04:52:07;;;;;;;8.65;1.48;;;8.20;99.90;;;;;;5072077;28;20541;-37
2023/04/11 04:54:33;;;;;;;1.35;0.32;;;8.20;99.90;;;;;;5071424;28;20025;-43
2023/04/11 04:57:00;;;;;;;10.27;0.95;;;8.20;99.90;;;;;;5071328;28;20102;-39
2023/04/11 04:59:25;;;;;;;5.50;1.17;;;8.20;99.90;;;;;;5070506;28;20110;-39
2023/04/11 05:01:52;;;;;;;4.40;0.45;;;8.20;99.90;;;;;;5071209;28;20040;-40
2023/04/11 05:04:18;;;;;;;11.88;0.95;;;8.10;99.90;;;;;;5052281;28;20488;-42
2023/04/11 05:06:44;;;;;;;7.90;1.33;;;8.10;99.90;;;;;;5054933;28;20469;-41
2023/04/11 05:09:09;;;;;;;6.55;0.65;;;8.10;99.90;;;;;;5071274;28;20081;-39
2023/04/11 05:11:35;;;;;;;3.10;0.88;;;8.10;99.90;;;;;;5070205;28;20040;-36
2023/04/11 05:14:01;;;;;;;7.45;1.13;;;8.10;99.90;;;;;;5070983;28;20025;-41
2023/04/11 05:16:26;;;;;;;8.00;0.80;;;8.00;99.90;;;;;;5070302;28;20390;-41
2023/04/11 05:18:52;;;;;;;4.97;0.60;;;8.10;99.90;;;;;;5068772;28;20028;-38
2023/04/11 05:21:18;;;;;;;3.70;0.70;;;8.10;99.90;;;;;;5059374;28;20108;-38
2023/04/11 05:23:43;;;;;;;7.93;0.60;;;8.10;99.90;;;;;;5072881;28;20027;-40
2023/04/11 05:26:11;;;;;;;5.53;0.88;;;8.10;99.90;;;;;;5074785;28;20031;-40
2023/04/11 05:28:37;;;;;;;7.93;0.90;;;8.20;99.90;;;;;;5074561;28;20512;-40
2023/04/11 05:31:02;;;;;;;14.93;0.90;;;8.20;99.90;;;;;;5072489;28;20050;-44
2023/04/11 05:33:28;;;;;;;8.40;0.60;;;8.20;99.90;;;;;;5075877;28;20055;-41
2023/04/11 05:35:54;;;;;;;12.07;1.98;;;8.30;99.90;;;;;;5074243;28;20025;-42
2023/04/11 05:38:20;;;;;;;3.70;1.08;;;8.30;99.90;;;;;;5065109;28;20032;-41
2023/04/11 05:40:46;;;;;;;6.78;1.13;;;8.20;99.90;;;;;;5065995;28;20104;-43
2023/04/11 05:43:13;;;;;;;5.40;1.52;;;8.40;99.90;;;;;;5074884;28;20027;-39
2023/04/11 05:45:49;;;;;;;8.60;0.75;;;8.40;99.90;;;;;;5073375;28;20025;-38
2023/04/11 05:48:22;;;;;;;7.10;0.88;;;8.50;99.90;;;;;;5064402;28;20029;-38
2023/04/11 05:50:49;;;;;;;5.85;1.00;;;8.60;99.90;;;;;;5055243;28;20043;-40
2023/04/11 05:53:15;;;;;;;3.10;0.80;;;8.60;99.90;;;;;;5055427;28;20412;-40
2023/04/11 05:55:41;;;;;;;9.43;2.00;;;8.70;99.90;;;;;;5071876;28;20103;-42
2023/04/11 05:58:07;;;;;;;2.63;0.70;;;8.70;99.90;;;;;;5074836;28;20085;-41
2023/04/11 06:00:33;;;;;;;10.07;0.77;;;8.70;99.90;;;;;;5054585;28;20119;-36
2023/04/11 06:02:59;;;;;;;5.72;1.10;;;8.80;99.90;;;;;;5067963;28;20469;-40
2023/04/11 06:05:25;;;;;;;3.92;1.08;;;8.80;99.90;;;;;;5073831;28;20025;-40
2023/04/11 06:07:52;;;;;;;7.30;1.45;;;9.00;99.90;;;;;;5075320;28;20081;-39
2023/04/11 06:10:17;;;;;;;7.97;1.48;;;8.90;99.90;;;;;;5057143;28;20492;-39
2023/04/11 06:12:43;;;;;;;4.60;1.00;;;9.00;99.90;;;;;;5070726;28;20028;-42
2023/04/11 06:15:10;;;;;;;7.35;1.15;;;9.00;99.90;;;;;;5065726;28;20025;-32
2023/04/11 06:17:37;;;;;;;15.27;2.33;;;9.10;99.90;;;;;;5072258;28;20473;-41
2023/04/11 06:20:04;;;;;;;12.20;2.58;;;9.20;99.90;;;;;;5072364;28;20473;-38
2023/04/11 06:22:30;;;;;;;13.00;1.00;;;9.30;99.90;;;;;;5058697;28;20032;-40
2023/04/11 06:24:56;;;;;;;10.40;1.20;;;9.30;99.90;;;;;;5054880;28;20056;-37
2023/04/11 06:27:21;;;;;;;6.50;1.67;;;9.40;99.90;;;;;;5067174;28;20047;-42
2023/04/11 06:29:47;;;;;;;7.93;1.20;;;9.60;99.90;;;;;;5073942;28;20115;-40
2023/04/11 06:32:13;;;;;;;9.00;1.65;;;9.70;99.90;;;;;;5061230;28;20021;-40
2023/04/11 06:34:39;;;;;;;8.77;1.17;;;9.60;99.90;;;;;;5063539;28;20051;-36
2023/04/11 06:37:08;;;;;;;7.43;1.50;;;9.60;99.90;;;;;;5074479;28;20024;-37
2023/04/11 06:39:34;;;;;;;6.30;1.10;;;9.50;99.90;;;;;;5070010;28;20119;-39
2023/04/11 06:42:00;;;;;;;6.45;1.45;;;9.50;99.90;;;;;;5073209;28;20021;-42
2023/04/11 06:44:26;;;;;;;11.73;1.48;;;9.50;99.90;;;;;;5073656;28;20065;-37
2023/04/11 06:46:52;;;;;;;5.55;1.25;;;9.50;99.90;;;;;;5056665;28;20111;-38
2023/04/11 06:49:18;;;;;;;8.90;0.93;;;9.50;99.90;;;;;;5071553;28;20035;-39
2023/04/11 06:51:50;;;;;;;9.07;3.55;;;9.60;99.90;;;;;;5067013;28;20412;-39
2023/04/11 06:54:17;;;;;;;7.78;0.93;;;9.70;99.90;;;;;;5067447;28;20519;-39
2023/04/11 06:56:43;;;;;;;2.28;0.80;;;9.70;99.90;;;;;;5064954;28;20060;-45
2023/04/11 06:59:09;;;;;;;7.03;1.00;;;9.70;99.90;;;;;;5067894;28;20037;-40
2023/04/11 07:01:37;;;;;;;10.18;1.20;;;9.70;99.90;;;;;;5069496;28;20339;-40
2023/04/11 07:04:06;;;;;;;5.25;1.02;;;9.80;99.90;;;;;;5054700;28;20486;-35
2023/04/11 07:06:34;;;;;;;18.17;3.22;;;9.80;99.90;;;;;;5055709;28;20558;-36
2023/04/11 07:09:00;;;;;;;10.05;1.65;;;10.00;99.90;;;;;;5055628;28;20025;-39
2023/04/11 07:11:27;;;;;;;5.18;1.45;;;10.00;99.90;;;;;;5061464;28;20074;-39
2023/04/11 07:13:55;;;;;;;13.98;1.50;;;10.10;99.90;;;;;;5058406;28;20024;-41
2023/04/11 07:16:20;;;;;;;4.43;0.73;;;10.10;99.90;;;;;;5070413;28;20044;-35
2023/04/11 07:18:47;;;;;;;9.15;1.50;;;10.10;99.90;;;;;;5072618;28;20041;-35
2023/04/11 07:21:14;;;;;;;6.85;1.63;;;10.30;99.90;;;;;;5059537;28;20025;-37
2023/04/11 07:23:40;;;;;;;8.63;1.35;;;10.40;99.90;;;;;;5056277;28;20021;-40
2023/04/11 07:26:07;;;;;;;15.65;1.08;;;10.50;99.90;;;;;;5060253;28;20056;-39
2023/04/11 07:28:36;;;;;;;6.70;1.38;;;10.50;99.90;;;;;;5058473;28;20493;-41
2023/04/11 07:31:03;;;;;;;8.20;1.17;;;10.70;99.90;;;;;;5065526;28;20110;-36
2023/04/11 07:33:28;;;;;;;9.68;1.50;;;10.80;99.90;;;;;;5053534;28;20063;-40
2023/04/11 07:35:54;;;;;;;10.70;1.15;;;10.60;99.90;;;;;;5053245;28;20496;-43
2023/04/11 07:38:28;;;;;;;5.05;1.13;;;10.60;99.90;;;;;;5053859;28;20033;-37
2023/04/11 07:40:55;;;;;;;7.72;1.42;;;10.50;99.90;;;;;;5067806;28;20477;-37
2023/04/11 07:43:20;;;;;;;8.50;1.80;;;10.40;99.90;;;;;;5072828;28;20032;-38
2023/04/11 07:45:46;;;;;;;6.35;1.10;;;10.50;99.90;;;;;;5068976;28;20488;-35
2023/04/11 07:48:12;;;;;;;11.02;1.23;;;10.50;99.90;;;;;;5068261;28;20024;-35
2023/04/11 07:50:37;;;;;;;6.10;1.50;;;10.50;99.90;;;;;;5067588;28;20495;-36
2023/04/11 07:53:03;;;;;;;7.35;1.55;;;10.50;99.90;;;;;;5065155;28;20477;-49
2023/04/11 07:55:28;;;;;;;4.80;1.60;;;10.60;99.90;;;;;;5053158;28;20029;-41
2023/04/11 07:57:54;;;;;;;4.03;0.63;;;10.80;99.90;;;;;;5062494;28;20032;-35
2023/04/11 08:00:22;;;;;;;9.25;1.40;;;10.80;99.90;;;;;;5061316;28;20405;-39
2023/04/11 08:02:48;;;;;;;10.48;1.85;;;10.70;99.90;;;;;;5061561;28;20082;-43
2023/04/11 08:05:14;;;;;;;2.70;0.73;;;10.80;99.90;;;;;;5068656;28;20033;-40
2023/04/11 08:07:40;;;;;;;9.35;1.25;;;10.80;99.90;;;;;;5061043;28;20390;-34
2023/04/11 08:10:07;;;;;;;8.68;1.13;;;10.60;99.90;;;;;;5060171;28;20044;-38
2023/04/11 08:12:32;;;;;;;8.63;1.95;;;10.60;99.90;;;;;;5056787;28;20481;-37
2023/04/11 08:14:59;;;;;;;5.85;1.33;;;10.80;99.90;;;;;;5068546;28;20032;-34
2023/04/11 08:17:27;;;;;;;10.32;0.98;;;11.00;99.90;;;;;;5081131;28;20032;-35
2023/04/11 08:19:53;;;;;;;;;;;10.90;99.90;;;;;;5066366;28;20024;-35
2023/04/11 08:22:19;;;;;;;8.27;0.77;;;10.80;99.90;;;;;;5072740;28;19954;-43
2023/04/11 08:24:44;;;;;;;19.13;1.58;;;10.80;99.90;;;;;;5070365;28;20085;-33
2023/04/11 08:27:10;;;;;;;12.13;1.23;;;10.80;99.90;;;;;;5063245;28;20367;-34
2023/04/11 08:29:36;;;;;;;11.65;1.50;;;11.00;99.90;;;;;;5057080;28;20017;-37
2023/04/11 08:32:01;;;;;;;2.95;1.02;;;11.10;99.90;;;;;;5099428;28;20017;-35
2023/04/11 08:34:27;;;;;;;8.65;1.23;;;11.30;99.90;;;;;;5061805;28;20025;-35
2023/04/11 08:36:53;;;;;;;4.97;1.30;;;11.50;99.90;;;;;;5066352;28;20097;-38
2023/04/11 08:39:18;;;;;;;2.00;0.70;;;11.60;99.90;;;;;;5070152;28;20040;-39
2023/04/11 08:41:44;;;;;;;9.10;0.95;;;11.50;99.90;;;;;;5070424;28;20484;-38
2023/04/11 08:44:11;;;;;;;7.55;1.60;;;11.60;99.90;;;;;;5065365;28;20028;-42
2023/04/11 08:46:40;;;;;;;7.15;1.15;;;11.40;99.90;;;;;;5071485;28;20027;-35
2023/04/11 08:49:06;;;;;;;6.97;1.05;;;11.40;99.90;;;;;;5081713;28;20369;-38
2023/04/11 08:51:32;;;;;;;5.82;1.17;;;11.40;99.90;;;;;;5070493;28;20035;-35
2023/04/11 08:54:03;;;;;;;3.35;0.68;;;11.50;99.90;;;;;;5069443;28;20037;-34
2023/04/11 08:56:29;;;;;;;4.82;0.60;;;11.80;99.90;;;;;;5069343;28;20481;-38
2023/04/11 08:58:55;;;;;;;9.15;1.38;;;12.00;99.90;;;;;;5070671;28;20040;-34
2023/04/11 09:01:29;;;;;;;4.32;0.70;;;12.10;99.90;;;;;;5073236;28;20024;-36
2023/04/11 09:03:54;;;;;;;7.30;0.88;;;11.90;99.90;;;;;;5075634;28;20031;-37
2023/04/11 09:06:20;;;;;;;7.80;1.42;;;11.90;99.90;;;;;;5074102;28;20488;-39
2023/04/11 09:08:46;;;;;;;16.45;1.23;;;12.00;99.90;;;;;;5074355;28;20033;-39
2023/04/11 09:11:16;;;;;;;6.18;1.08;;;11.70;99.90;;;;;;5073660;28;20024;-33
2023/04/11 09:13:42;;;;;;;5.03;1.10;;;11.40;99.90;;;;;;5075011;28;20033;-41
2023/04/11 09:16:13;;;;;;;3.22;0.60;;;11.20;99.90;;;;;;5073060;28;20393;-39
2023/04/11 09:18:40;;;;;;;7.25;0.98;;;11.00;99.90;;;;;;5075113;28;20033;-36
2023/04/11 09:21:10;;;;;;;6.60;0.98;;;11.00;99.90;;;;;;5070739;28;20021;-38
2023/04/11 09:23:36;;;;;;;3.03;0.60;;;11.20;99.90;;;;;;5070848;28;20465;-33
2023/04/11 09:26:07;;;;;;;4.22;0.82;;;11.40;99.90;;;;;;5063599;28;20484;-37
2023/04/11 09:28:53;;;;;;;5.72;0.43;;;11.10;99.90;;;;;;5074837;28;20020;-40
2023/04/11 09:31:38;;;;;;;7.75;1.48;;;11.00;99.90;;;;;;5075761;28;20394;-40
2023/04/11 09:34:03;;;;;;;5.70;1.17;;;10.90;99.90;;;;;;5075483;28;20029;-38
2023/04/11 09:36:29;;;;;;;10.00;1.63;;;11.10;99.90;;;;;;5073787;28;20035;-37
2023/04/11 09:38:55;;;;;;;5.68;1.17;;;11.50;99.90;;;;;;5073515;28;20036;-38
2023/04/11 09:41:32;;;;;;;7.95;1.02;;;11.60;99.90;;;;;;5072990;28;20017;-40
2023/04/11 09:44:01;;;;;;;4.97;1.20;;;11.70;99.90;;;;;;5059715;28;20021;-36
2023/04/11 09:46:30;;;;;;;3.10;0.70;;;11.60;99.90;;;;;;5073156;28;20140;-37
2023/04/11 09:48:56;;;;;;;5.75;0.88;;;11.60;99.90;;;;;;5075038;28;20079;-48
2023/04/11 09:51:22;;;;;;;11.40;1.20;;;11.90;99.90;;;;;;5074872;28;20441;-36
2023/04/11 09:53:47;;;;;;;4.10;0.80;;;12.20;99.90;;;;;;5075445;28;20033;-34
2023/04/11 09:56:13;;;;;;;6.35;1.00;;;12.20;99.90;;;;;;5073017;28;20386;-36
2023/04/11 09:58:40;;;;;;;9.48;0.60;;;12.30;99.90;;;;;;5072276;28;20032;-32
2023/04/11 10:01:08;;;;;;;7.75;1.95;;;12.50;99.90;;;;;;5075338;28;20032;-38
2023/04/11 10:03:38;;;;;;;9.98;1.02;;;12.70;99.90;;;;;;5071380;28;20029;-44
2023/04/11 10:06:30;;;;;;;4.28;0.80;;;12.70;99.90;;;;;;5070201;28;20051;-38
2023/04/11 10:09:04;;;;;;;6.45;0.90;;;12.50;99.90;;;;;;5059474;28;20028;-37
2023/04/11 10:11:30;;;;;;;3.05;0.85;;;12.50;99.90;;;;;;5068031;28;20036;-33
2023/04/11 10:13:56;;;;;;;4.78;1.02;;;12.70;99.90;;;;;;5058622;28;20086;-37
2023/04/11 10:16:22;;;;;;;2.35;0.65;;;12.60;99.90;;;;;;5086191;28;20071;-35
2023/04/11 10:18:51;;;;;;;6.78;0.75;;;12.80;99.90;;;;;;5072546;28;20043;-33
2023/04/11 10:21:29;;;;;;;10.38;1.27;;;12.80;99.90;;;;;;5054921;28;20037;-32
2023/04/11 10:24:10;;;;;;;;;;;12.60;99.90;;;;;;5056062;28;20025;-34
2023/04/11 10:26:48;;;;;;;7.05;1.08;;;12.20;99.90;;;;;;5054998;28;19909;-33
2023/04/11 10:29:31;;;;;;;;;;;12.10;99.90;;;;;;5067920;28;20047;-38
2023/04/11 10:32:16;;;;;;;4.40;1.70;;;11.90;99.90;;;;;;5075152;28;19912;-44
2023/04/11 10:34:53;;;;;;;8.63;0.70;;;11.80;99.90;;;;;;5062717;28;20033;-36
2023/04/11 10:37:35;;;;;;;7.00;0.68;;;11.90;99.90;;;;;;5054260;28;20078;-33
2023/04/11 10:40:05;;;;;;;5.30;0.70;;;12.10;99.90;;;;;;5073960;28;20025;-38
2023/04/11 10:42:45;;;;;;;6.57;1.23;;;12.50;99.90;;;;;;5072501;28;20489;-35
2023/04/11 10:45:16;;;;;;;6.28;0.63;;;12.80;99.90;;;;;;5072244;28;20075;-35
2023/04/11 10:47:42;;;;;;;4.22;0.68;;;13.00;99.90;;;;;;5068887;28;20477;-34
2023/04/11 10:50:27;;;;;;;5.13;0.98;;;13.20;99.90;;;;;;5060772;28;20379;-36
2023/04/11 10:52:53;;;;;;;7.88;0.85;;;13.20;99.90;;;;;;5058611;28;20112;-38
2023/04/11 10:55:19;;;;;;;1.40;0.43;;;13.20;99.90;;;;;;5036460;28;20428;-37
2023/04/11 10:58:07;;;;;;;6.80;0.88;;;13.30;99.90;;;;;;5071587;28;20520;-34
2023/04/11 11:00:45;;;;;;;6.88;1.35;;;12.70;99.90;;;;;;5074018;28;20090;-40
2023/04/11 11:03:30;;;;;;;;;;;12.30;99.90;;;;;;5074640;28;20032;-34
2023/04/11 11:06:01;;;;;;;5.32;0.90;;;12.30;99.90;;;;;;5070996;28;19917;-33
2023/04/11 11:08:31;;;;;;;3.85;0.68;;;12.20;99.90;;;;;;5069243;28;20025;-39
2023/04/11 11:11:01;;;;;;;6.47;1.05;;;12.10;99.90;;;;;;5074025;28;20040;-34
2023/04/11 11:13:40;;;;;;;5.13;0.95;;;12.00;99.90;;;;;;5072972;28;20124;-32
2023/04/11 11:16:07;;;;;;;10.18;1.42;;;12.00;99.90;;;;;;5069566;28;20032;-34
2023/04/11 11:18:33;;;;;;;2.83;0.90;;;12.30;99.90;;;;;;5063439;28;20401;-37
2023/04/11 11:20:59;;;;;;;6.65;0.75;;;12.20;99.90;;;;;;5070701;28;20025;-34
2023/04/11 11:23:26;;;;;;;3.90;0.93;;;12.10;99.90;;;;;;5073691;28;20107;-35
2023/04/11 11:25:56;;;;;;;7.35;1.05;;;12.00;99.90;;;;;;5072214;28;20564;-36
2023/04/11 11:28:22;;;;;;;7.75;1.65;;;12.10;99.90;;;;;;5073877;28;20448;-35
2023/04/11 11:30:53;;;;;;;2.80;1.17;;;12.40;99.90;;;;;;5057865;28;20037;-36
2023/04/11 11:33:21;;;;;;;5.30;0.90;;;12.90;99.90;;;;;;5053543;28;20029;-36
2023/04/11 11:35:52;;;;;;;;;;;13.30;99.90;;;;;;5053157;28;20465;-38
2023/04/11 11:38:19;;;;;;;3.28;1.23;;;13.70;99.90;;;;;;5069058;28;20376;-36
2023/04/11 11:40:48;;;;;;;10.48;0.88;;;14.20;99.90;;;;;;5073562;28;20485;-40
2023/04/11 11:43:15;;;;;;;4.95;1.05;;;14.20;99.90;;;;;;5073531;28;20366;-35
2023/04/11 11:45:41;;;;;;;3.53;0.80;;;14.30;99.90;;;;;;5059867;28;20025;-40
2023/04/11 11:48:07;;;;;;;1.50;0.82;;;14.20;99.90;;;;;;5053302;28;20085;-34
2023/04/11 11:50:33;;;;;;;7.03;1.25;;;14.30;99.90;;;;;;5053808;28;20028;-37
2023/04/11 11:53:20;;;;;;;2.63;0.75;;;14.40;99.90;;;;;;5065228;28;20032;-34
2023/04/11 11:55:47;;;;;;;9.90;1.10;;;14.70;99.90;;;;;;5071765;28;20538;-35
2023/04/11 11:58:12;;;;;;;5.88;0.70;;;14.90;99.90;;;;;;5073286;28;20035;-34
2023/04/11 12:00:40;;;;;;;4.82;1.05;;;14.90;98.50;;;;;;5072882;28;20052;-33
2023/04/11 12:03:10;;;;;;;6.97;0.93;;;14.70;98.80;;;;;;5058842;28;20040;-36
2023/04/11 12:05:37;;;;;;;5.00;1.45;;;14.70;99.90;;;;;;5053120;28;20117;-61
2023/04/11 12:08:05;;;;;;;2.90;0.95;;;14.70;99.30;;;;;;5055474;28;20040;-35
2023/04/11 12:10:45;;;;;;;;;;;14.70;98.70;;;;;;5062356;28;20032;-32
2023/04/11 12:13:18;;;;;;;5.50;0.73;;;14.70;99.00;;;;;;5073048;28;19966;-33
2023/04/11 12:15:48;;;;;;;8.13;0.80;;;14.40;99.90;;;;;;5073165;28;20535;-32
2023/04/11 12:18:14;;;;;;;2.13;0.68;;;14.30;99.10;;;;;;5071609;28;20033;-33
2023/04/11 12:20:40;;;;;;;3.13;1.00;;;14.30;98.80;;;;;;5069347;28;20025;-36
2023/04/11 12:23:06;;;;;;;1.73;0.80;;;14.30;98.40;;;;;;5071771;28;20044;-30
2023/04/11 12:25:31;;;;;;;4.38;0.70;;;14.50;99.60;;;;;;5056826;28;20017;-34
2023/04/11 12:27:57;;;;;;;5.10;1.48;;;14.60;98.80;;;;;;5052762;28;20477;-59
2023/04/11 12:30:23;;;;;;;8.05;1.00;;;14.70;99.00;;;;;;5058109;28;20055;-37
2023/04/11 12:32:49;;;;;;;7.95;0.90;;;14.90;98.50;;;;;;5051785;28;20151;-35
2023/04/11 12:35:14;;;;;;;5.03;0.68;;;14.90;98.60;;;;;;5064404;28;20477;-32
2023/04/11 12:37:40;;;;;;;4.63;1.08;;;14.70;99.10;;;;;;5071278;28;20385;-30
2023/04/11 12:40:09;;;;;;;11.27;1.70;;;14.50;98.90;;;;;;5072515;28;20029;-34
2023/04/11 12:42:37;;;;;;;4.18;0.50;;;14.50;99.30;;;;;;5071329;28;20465;-37
2023/04/11 12:45:04;;;;;;;9.40;1.67;;;14.70;99.90;;;;;;5072505;28;20070;-35
2023/04/11 12:47:30;;;;;;;8.23;1.00;;;14.70;99.80;;;;;;5069232;28;20032;-37
2023/04/11 12:49:55;;;;;;;3.55;1.30;;;14.50;99.30;;;;;;5053532;28;20025;-34
2023/04/11 12:52:21;;;;;;;9.48;1.67;;;14.50;98.80;;;;;;5072434;28;20367;-42